Time;durP1;ratioP1;P1;durP2;ratioP2;P2;SDS_P1;SDS_P2;PMS_P1;PMS_P2;Temp;Humidity;BMP_temperature;BMP_pressure;BME280_temperature;BME280_humidity;BME280_pressure;Samples;Min_cycle;Max_cycle;Signal;HPM_P1;HPM_P2
2022/05/19 00:00:02;;;;;;;5;3.8;;;;;;;15.12;79.89355;942.9777;;;;
2022/05/19 00:02:27;;;;;;;8;4.5;;;;;;;14.98;80.69824;943.0095;;;;
2022/05/19 00:04:58;;;;;;;6.7;3.9;;;;;;;14.97;80.83496;942.9614;;;;
2022/05/19 00:07:25;;;;;;;5.5;4.3;;;;;;;15.03;80.5;942.9561;;;;
2022/05/19 00:09:52;;;;;;;5.1;3.9;;;;;;;15.08;80.46387;942.9408;;;;
2022/05/19 00:12:24;;;;;;;4.9;3.4;;;;;;;15.14;80.11621;942.9496;;;;
2022/05/19 00:15:00;;;;;;;4.8;3.7;;;;;;;15.23;79.56738;942.9731;;;;
2022/05/19 00:17:33;;;;;;;5;3.7;;;;;;;15.18;79.46484;942.9584;;;;
2022/05/19 00:20:02;;;;;;;4.4;3.4;;;;;;;15.26;79.23926;942.9995;;;;
2022/05/19 00:22:29;;;;;;;4.6;3.7;;;;;;;15.18;79.23438;942.8934;;;;
2022/05/19 00:24:57;;;;;;;5.8;3.7;;;;;;;15.17;79.45215;942.9897;;;;
2022/05/19 00:27:23;;;;;;;4.3;3.6;;;;;;;15.14;79.65625;942.9817;;;;
2022/05/19 00:29:50;;;;;;;6;3.7;;;;;;;15.08;79.70117;942.9448;;;;
2022/05/19 00:32:15;;;;;;;5.3;3.8;;;;;;;15.07;79.94141;942.8599;;;;
2022/05/19 00:34:42;;;;;;;4.7;3.6;;;;;;;15.03;79.72754;942.8903;;;;
2022/05/19 00:37:07;;;;;;;4.4;3.8;;;;;;;15.11;79.39551;942.7635;;;;
2022/05/19 00:39:34;;;;;;;5;3.7;;;;;;;15.1;79.27734;942.8036;;;;
2022/05/19 00:42:45;;;;;;;5.2;3.7;;;;;;;14.91;80.14453;942.8691;;;;
2022/05/19 00:44:26;;;;;;;3.9;3.4;;;;;;;14.92;80.20215;942.8435;;;;
2022/05/19 00:46:51;;;;;;;8.7;4.2;;;;;;;14.83;80.35938;942.7898;;;;
2022/05/19 00:49:16;;;;;;;5.1;3.5;;;;;;;14.71;80.91504;942.8439;;;;
2022/05/19 00:51:41;;;;;;;4.1;3.7;;;;;;;14.75;80.97852;942.783;;;;
2022/05/19 00:54:06;;;;;;;5.2;3.9;;;;;;;14.74;80.86035;942.7927;;;;
2022/05/19 00:56:32;;;;;;;4.2;3.5;;;;;;;14.66;81.41211;942.8167;;;;
2022/05/19 00:58:57;;;;;;;4.2;3.8;;;;;;;14.54;81.67676;942.8466;;;;
2022/05/19 01:01:26;;;;;;;4.3;3.8;;;;;;;14.47;82.05664;942.8906;;;;
2022/05/19 01:03:53;;;;;;;5.5;3.5;;;;;;;14.5;82.10938;942.8801;;;;
2022/05/19 01:06:18;;;;;;;4.7;4;;;;;;;14.56;81.68164;942.8715;;;;
2022/05/19 01:08:44;;;;;;;4.8;3.7;;;;;;;14.61;81.3457;942.8138;;;;
2022/05/19 01:11:09;;;;;;;5;3.4;;;;;;;14.65;81.22559;942.807;;;;
2022/05/19 01:13:35;;;;;;;4.7;3.4;;;;;;;14.53;81.65137;942.8002;;;;
2022/05/19 01:16:00;;;;;;;5.9;3.8;;;;;;;14.35;82.32031;942.8016;;;;
2022/05/19 01:18:29;;;;;;;3.7;3.3;;;;;;;14.28;82.90723;942.783;;;;
2022/05/19 01:20:54;;;;;;;4.1;3.7;;;;;;;14.21;83.10059;942.7681;;;;
2022/05/19 01:23:20;;;;;;;4.6;4;;;;;;;14.21;83.21582;942.7305;;;;
2022/05/19 01:25:44;;;;;;;5;3.6;;;;;;;14.32;82.39551;942.8223;;;;
2022/05/19 05:54:05;;;;;;;4.3;3.6;;;;;;;23.93;48.10938;943.4918;;;;
2022/05/19 05:56:33;;;;;;;4.6;2.5;;;;;;;23.85;48.32422;943.4833;;;;
2022/05/19 05:59:06;;;;;;;3;2.5;;;;;;;24.21;47.32617;943.459;;;;
2022/05/19 06:01:34;;;;;;;4;2;;;;;;;24.05;47.96973;943.5279;;;;
2022/05/19 06:04:06;;;;;;;3.6;2.4;;;;;;;24.01;47.6582;943.4813;;;;
2022/05/19 06:07:51;;;;;;;5.3;2.5;;;;;;;22.98;50.32129;943.4727;;;;
2022/05/19 06:10:24;;;;;;;3;2.2;;;;;;;22.09;52.64648;943.486;;;;
2022/05/19 06:12:57;;;;;;;3.5;2.4;;;;;;;22.01;53.92578;943.4533;;;;
2022/05/19 06:15:31;;;;;;;3.4;2.5;;;;;;;22.72;51.84082;943.418;;;;
2022/05/19 06:18:03;;;;;;;3.4;2.5;;;;;;;23.02;52.11035;943.3967;;;;
2022/05/19 06:20:28;;;;;;;2.8;2.3;;;;;;;24.51;47.74609;943.3875;;;;
2022/05/19 06:22:54;;;;;;;4.4;2.2;;;;;;;25.23;45.6875;943.426;;;;
2022/05/19 06:25:19;;;;;;;2.2;2;;;;;;;26.37;45.35449;943.3995;;;;
2022/05/19 06:27:51;;;;;;;3.4;2.2;;;;;;;27.84;40.00488;943.3755;;;;
2022/05/19 06:30:16;;;;;;;3.7;2;;;;;;;27.63;41.01953;943.4486;;;;
2022/05/19 06:32:45;;;;;;;4.4;2.2;;;;;;;29.39;37.99805;943.3797;;;;
2022/05/19 06:35:18;;;;;;;4.2;2.1;;;;;;;30.07;35.57324;943.2994;;;;
2022/05/19 06:37:43;;;;;;;3.6;2.4;;;;;;;31.26;33.20215;943.4099;;;;
2022/05/19 06:40:17;;;;;;;2.6;2.1;;;;;;;31.5;33.06445;943.3508;;;;
2022/05/19 06:42:42;;;;;;;4.9;1.9;;;;;;;31.25;33.6084;943.3223;;;;
2022/05/19 06:45:07;;;;;;;1.9;1.7;;;;;;;30.17;32.74023;943.4377;;;;
2022/05/19 06:47:37;;;;;;;2.9;2;;;;;;;30.51;32.94434;943.3585;;;;
2022/05/19 06:50:04;;;;;;;6.3;2;;;;;;;30.37;32.7666;943.3783;;;;
2022/05/19 06:52:28;;;;;;;2.8;2.2;;;;;;;30.3;32.68945;943.3661;;;;
2022/05/19 06:54:52;;;;;;;4.7;2.4;;;;;;;29.64;33.78711;943.3885;;;;
2022/05/19 06:57:17;;;;;;;2.9;1.7;;;;;;;30.52;33.13574;943.3762;;;;
2022/05/19 06:59:42;;;;;;;2.7;1.7;;;;;;;30.08;33.08008;943.3508;;;;
2022/05/19 07:02:11;;;;;;;3;1.9;;;;;;;30.33;32.27441;943.3807;;;;
2022/05/19 07:04:36;;;;;;;3.6;1.9;;;;;;;30.63;32.46289;943.3245;;;;
2022/05/19 07:07:04;;;;;;;2.8;1.8;;;;;;;32.71;30.15137;943.3565;;;;
2022/05/19 07:09:29;;;;;;;2.2;1.7;;;;;;;33.45;28.4209;943.3775;;;;
2022/05/19 07:11:59;;;;;;;2;1.8;;;;;;;32.9;28.45898;943.3763;;;;
2022/05/19 07:14:23;;;;;;;2.6;1.7;;;;;;;31.18;29.96582;943.395;;;;
2022/05/19 07:16:50;;;;;;;2.1;1.8;;;;;;;31.37;29.99023;943.3593;;;;
2022/05/19 07:21:42;;;;;;;2.4;2;;;;;;;33.26;28.39746;943.356;;;;
2022/05/19 07:24:05;;;;;;;2.5;1.8;;;;;;;33.73;27.15137;943.3379;;;;
2022/05/19 07:26:31;;;;;;;1.9;1.6;;;;;;;32.51;28.11035;943.356;;;;
2022/05/19 07:28:56;;;;;;;2.3;2.1;;;;;;;34.91;27.43945;943.3117;;;;
2022/05/19 07:31:21;;;;;;;3.8;1.8;;;;;;;36.51;24.35156;943.2645;;;;
2022/05/19 07:33:51;;;;;;;2.7;1.5;;;;;;;37.84;23.4873;943.3383;;;;
2022/05/19 07:36:16;;;;;;;2.8;1.9;;;;;;;38.2;22.52148;943.3158;;;;
2022/05/19 07:38:47;;;;;;;3.9;1.8;;;;;;;38.01;23.61816;943.3369;;;;
2022/05/19 07:41:16;;;;;;;3.4;1.8;;;;;;;38.17;23.72363;943.3006;;;;
2022/05/19 07:43:42;;;;;;;2;1.8;;;;;;;38.42;21.30566;943.3398;;;;
2022/05/19 07:46:07;;;;;;;2.1;1.7;;;;;;;36.48;23.21191;943.3334;;;;
2022/05/19 07:48:39;;;;;;;1.7;1.6;;;;;;;36.55;26.10938;943.2877;;;;
2022/05/19 07:51:10;;;;;;;2.5;1.6;;;;;;;37.29;22.45313;943.2158;;;;
2022/05/19 07:53:36;;;;;;;2.6;1.7;;;;;;;37.26;22.87598;943.2241;;;;
2022/05/19 07:56:01;;;;;;;2.8;2.2;;;;;;;37.1;23.69238;943.2148;;;;
2022/05/19 07:58:29;;;;;;;2;1.8;;;;;;;37.37;24.27637;943.2589;;;;
2022/05/19 08:00:53;;;;;;;2.6;1.9;;;;;;;36.77;24.5957;943.2427;;;;
2022/05/19 08:03:22;;;;;;;2;1.8;;;;;;;37.72;23.34766;943.2086;;;;
2022/05/19 08:05:46;;;;;;;2.1;1.6;;;;;;;36.28;24.70313;943.2313;;;;
2022/05/19 08:08:11;;;;;;;2.7;1.7;;;;;;;38.01;22.78027;943.2104;;;;
2022/05/19 08:10:36;;;;;;;2.2;1.7;;;;;;;39.29;21.68652;943.2204;;;;
2022/05/19 08:15:38;;;;;;;2.2;1.7;;;;;;;37.79;24.7832;943.1978;;;;
2022/05/19 08:17:57;;;;;;;2.5;1.8;;;;;;;38.31;23.57227;943.1683;;;;
2022/05/19 08:20:26;;;;;;;2.2;1.6;;;;;;;37.75;23.78613;943.1359;;;;
2022/05/19 08:22:53;;;;;;;2.4;2;;;;;;;36;25.24414;943.1207;;;;
2022/05/19 08:25:18;;;;;;;3.1;1.9;;;;;;;36.26;26.29785;943.0941;;;;
2022/05/19 08:27:47;;;;;;;2.5;1.9;;;;;;;35.95;25.74902;943.111;;;;
2022/05/19 08:30:11;;;;;;;2.6;1.7;;;;;;;35.56;31.29492;943.1225;;;;
2022/05/19 08:32:40;;;;;;;2.1;1.7;;;;;;;36.06;29.27344;943.1547;;;;
2022/05/19 08:35:05;;;;;;;2.1;1.6;;;;;;;35.89;28.93555;943.1211;;;;
2022/05/19 08:37:35;;;;;;;2.1;1.8;;;;;;;37.34;26.28711;943.1746;;;;
2022/05/19 08:40:02;;;;;;;4.2;2.2;;;;;;;38.02;24.86914;943.1651;;;;
2022/05/19 08:42:26;;;;;;;3;1.8;;;;;;;38.56;24.375;943.1525;;;;
2022/05/19 08:44:54;;;;;;;2.5;2;;;;;;;38.1;24.86133;943.0797;;;;
2022/05/19 08:47:18;;;;;;;4.4;2;;;;;;;39.01;25.71387;943.1813;;;;
2022/05/19 08:49:46;;;;;;;2;1.8;;;;;;;38.51;25.56445;943.0986;;;;
2022/05/19 08:52:11;;;;;;;2.1;1.8;;;;;;;38.7;24.6748;943.0677;;;;
2022/05/19 08:54:37;;;;;;;3.1;1.9;;;;;;;37.36;24.27539;942.9733;;;;
2022/05/19 08:57:02;;;;;;;4;2;;;;;;;34.68;30.20996;942.9444;;;;
2022/05/19 08:59:28;;;;;;;3.2;2.1;;;;;;;35.34;30.53125;942.9634;;;;
2022/05/19 09:01:56;;;;;;;4.8;2;;;;;;;36.19;29.30566;942.9163;;;;
2022/05/19 09:04:22;;;;;;;2.1;1.8;;;;;;;35.42;26.11719;942.8825;;;;
2022/05/19 09:09:17;;;;;;;2.3;2.1;;;;;;;34.83;30.21973;942.9775;;;;
2022/05/19 09:11:44;;;;;;;6.2;2.5;;;;;;;35.11;28.79004;942.9331;;;;
2022/05/19 09:14:09;;;;;;;3.4;2.1;;;;;;;36.3;26.79688;942.8264;;;;
2022/05/19 09:16:38;;;;;;;4.4;2.3;;;;;;;36.4;27.29785;942.9241;;;;
2022/05/19 09:19:03;;;;;;;3.4;1.8;;;;;;;36.67;27.39941;942.9531;;;;
2022/05/19 09:21:28;;;;;;;3.1;2;;;;;;;35.92;27.0166;942.9595;;;;
2022/05/19 09:23:53;;;;;;;4.4;2.2;;;;;;;35.24;28.02637;942.9507;;;;
2022/05/19 09:26:20;;;;;;;4.3;2.1;;;;;;;33.72;29.25586;942.9595;;;;
2022/05/19 09:28:46;;;;;;;3.3;1.9;;;;;;;33.58;31.02637;942.8976;;;;
2022/05/19 09:31:11;;;;;;;16.8;3.5;;;;;;;33.25;31.30469;942.9442;;;;
2022/05/19 09:33:37;;;;;;;20.1;3.6;;;;;;;33.54;31.78125;942.9794;;;;
2022/05/19 09:36:06;;;;;;;4.9;2.2;;;;;;;33.25;28.75781;942.9763;;;;
2022/05/19 09:38:36;;;;;;;3.5;2.1;;;;;;;33.12;30.56348;942.9306;;;;
2022/05/19 09:41:05;;;;;;;62.5;7.7;;;;;;;31.97;33.66113;942.8585;;;;
2022/05/19 09:43:32;;;;;;;3.8;1.8;;;;;;;31.58;32.96191;942.9961;;;;
2022/05/19 09:45:56;;;;;;;5.2;2.3;;;;;;;32.78;34.5498;943.0328;;;;
2022/05/19 09:48:22;;;;;;;6.4;2.2;;;;;;;33.48;33.70215;942.9817;;;;
2022/05/19 09:50:47;;;;;;;2.4;2.2;;;;;;;33.15;29.73535;942.9226;;;;
2022/05/19 09:53:12;;;;;;;3.5;2.2;;;;;;;33.99;28.79199;942.9456;;;;
2022/05/19 09:55:39;;;;;;;3.6;2.2;;;;;;;33.19;31.19238;942.9186;;;;
2022/05/19 09:58:03;;;;;;;8.8;3.3;;;;;;;32.92;30.24902;942.8643;;;;
2022/05/19 10:00:30;;;;;;;4;2.4;;;;;;;31.97;33.5293;942.7783;;;;
2022/05/19 10:02:53;;;;;;;3.6;2;;;;;;;30.35;37.33789;942.8472;;;;
2022/05/19 10:05:17;;;;;;;2.1;1.9;;;;;;;30.04;37.28906;942.8967;;;;
2022/05/19 10:07:45;;;;;;;4.2;2.3;;;;;;;30.09;39.14355;942.9614;;;;
2022/05/19 10:10:10;;;;;;;3.5;2.2;;;;;;;30.04;38.36328;942.8889;;;;
2022/05/19 10:12:36;;;;;;;3.6;2.4;;;;;;;30.16;37.4541;942.894;;;;
2022/05/19 10:15:01;;;;;;;4.9;2.4;;;;;;;30.18;37.7666;942.8518;;;;
2022/05/19 10:17:25;;;;;;;3.4;2.2;;;;;;;30.21;38.48438;942.851;;;;
2022/05/19 10:19:50;;;;;;;11.7;2.4;;;;;;;30.97;35.57324;942.7861;;;;
2022/05/19 10:22:16;;;;;;;3.5;2.1;;;;;;;31.77;34.66504;942.8002;;;;
2022/05/19 10:24:41;;;;;;;3.5;2.3;;;;;;;32.29;34.34473;942.8416;;;;
2022/05/19 10:31:57;;;;;;;4.3;2.3;;;;;;;30.84;35.33398;942.8017;;;;
2022/05/19 10:34:21;;;;;;;3.9;2.5;;;;;;;30.45;34.08691;942.8361;;;;
2022/05/19 10:36:47;;;;;;;3.4;2.5;;;;;;;29.97;34.55078;942.8452;;;;
2022/05/19 10:39:14;;;;;;;3.2;2.1;;;;;;;29.69;35.05371;942.9111;;;;
2022/05/19 10:41:39;;;;;;;4.2;2.4;;;;;;;29.8;34.2041;942.9211;;;;
2022/05/19 10:44:06;;;;;;;4.6;2.3;;;;;;;29.22;37.10156;942.9177;;;;
2022/05/19 10:46:31;;;;;;;11.3;3.3;;;;;;;28.46;47.00391;943.0111;;;;
2022/05/19 10:48:56;;;;;;;13.3;3.7;;;;;;;28.2;49.87793;943.0686;;;;
2022/05/19 10:51:21;;;;;;;6.8;2.8;;;;;;;27.28;41.33105;943.0506;;;;
2022/05/19 10:54:30;;;;;;;4.4;2.5;;;;;;;27.18;39.69727;943.0047;;;;
2022/05/19 10:56:55;;;;;;;4.2;2.4;;;;;;;26.86;45.80664;942.8645;;;;
2022/05/19 10:59:19;;;;;;;6.7;2.9;;;;;;;26.83;53.00781;942.8386;;;;
2022/05/19 11:01:47;;;;;;;6.7;3.1;;;;;;;26.04;62.64746;942.8622;;;;
2022/05/19 11:04:10;;;;;;;5.8;3.3;;;;;;;25.9;65.65332;942.7783;;;;
2022/05/19 11:06:38;;;;;;;6.9;3.6;;;;;;;26.15;68.14063;942.8156;;;;
2022/05/19 11:09:05;;;;;;;4.8;3;;;;;;;26.2;69.48438;942.7264;;;;
2022/05/19 11:11:31;;;;;;;5.2;3;;;;;;;26.42;69.58887;942.6813;;;;
2022/05/19 11:13:56;;;;;;;3.9;3;;;;;;;27.07;65.28027;942.668;;;;
2022/05/19 11:16:24;;;;;;;7.3;3.5;;;;;;;27.7;63.50879;942.6627;;;;
2022/05/19 11:18:49;;;;;;;3.3;2.5;;;;;;;28.51;62.95703;942.6731;;;;
2022/05/19 11:21:15;;;;;;;4.8;2.6;;;;;;;29.32;61.49707;942.632;;;;
2022/05/19 11:23:40;;;;;;;5.1;2.8;;;;;;;29.79;55.12207;942.5916;;;;
2022/05/19 11:28:31;;;;;;;5;2.5;;;;;;;30.59;45.25488;942.4683;;;;
2022/05/19 11:30:56;;;;;;;4.7;2.4;;;;;;;30.81;43.30469;942.4191;;;;
2022/05/19 11:33:22;;;;;;;4.5;2;;;;;;;30.84;42.71094;942.4075;;;;
2022/05/19 11:35:50;;;;;;;2.7;2;;;;;;;30.55;40.15039;942.3994;;;;
2022/05/19 11:38:15;;;;;;;3.6;2;;;;;;;30.25;41.19824;942.4971;;;;
2022/05/19 11:40:40;;;;;;;5.1;2.3;;;;;;;30.03;39.85352;942.4272;;;;
2022/05/19 11:43:10;;;;;;;4.2;2.3;;;;;;;29.82;44.12891;942.4272;;;;
2022/05/19 11:45:37;;;;;;;5.4;2.4;;;;;;;30.26;42.66699;942.4278;;;;
2022/05/19 11:55:20;;;;;;;5.1;2.8;;;;;;;31;39.15039;942.2541;;;;
2022/05/19 11:57:45;;;;;;;3.4;2.1;;;;;;;31.28;38.58789;942.2139;;;;
2022/05/19 12:00:17;;;;;;;3.6;2.1;;;;;;;30.88;40.99219;942.2464;;;;
2022/05/19 12:02:48;;;;;;;4.9;2.3;;;;;;;31.09;37.44727;942.1965;;;;
2022/05/19 12:05:12;;;;;;;3.2;2;;;;;;;31.4;36.0127;942.1848;;;;
2022/05/19 12:07:41;;;;;;;3.8;2.1;;;;;;;31.77;37.85156;942.1923;;;;
2022/05/19 12:10:06;;;;;;;2.6;2;;;;;;;31.71;34.49219;942.1542;;;;
2022/05/19 12:12:31;;;;;;;3.9;2;;;;;;;31.78;35.19238;942.1801;;;;
2022/05/19 12:14:57;;;;;;;2.3;2.1;;;;;;;31.98;35.63965;942.1498;;;;
2022/05/19 12:17:25;;;;;;;3.7;2;;;;;;;31.67;34.95703;942.1658;;;;
2022/05/19 12:19:53;;;;;;;4.3;2.1;;;;;;;31.39;37.61523;942.1874;;;;
2022/05/19 12:22:18;;;;;;;3.7;2.4;;;;;;;31.39;35.4375;942.17;;;;
2022/05/19 12:24:45;;;;;;;3.1;2.2;;;;;;;31.18;37.03613;942.2442;;;;
2022/05/19 12:27:10;;;;;;;3.8;2.5;;;;;;;30.84;37.30762;942.27;;;;
2022/05/19 12:29:35;;;;;;;3.7;2.4;;;;;;;30.6;34.07422;942.1964;;;;
2022/05/19 12:32:03;;;;;;;3.6;2.5;;;;;;;30.45;37.14355;942.2715;;;;
2022/05/19 12:34:25;;;;;;;5.4;2.3;;;;;;;30.8;36.7666;942.2256;;;;
2022/05/19 12:36:50;;;;;;;4.7;2.5;;;;;;;31.2;36.4043;942.1984;;;;
2022/05/19 12:39:18;;;;;;;4.4;2.7;;;;;;;31.56;35.03125;942.2169;;;;
2022/05/19 12:41:43;;;;;;;4.1;2.6;;;;;;;31.61;36.2334;942.1877;;;;
2022/05/19 12:44:08;;;;;;;5.3;2.3;;;;;;;32.08;35.19141;942.2087;;;;
2022/05/19 12:46:33;;;;;;;3.4;2.3;;;;;;;32.5;35.48828;942.2421;;;;
2022/05/19 12:48:58;;;;;;;7.4;2.8;;;;;;;32.68;34.73438;942.247;;;;
2022/05/19 12:51:23;;;;;;;4.7;2.5;;;;;;;32.72;35.6377;942.2704;;;;
2022/05/19 12:53:48;;;;;;;2.9;2.5;;;;;;;32.66;36.28125;942.2586;;;;
2022/05/19 12:56:17;;;;;;;5.2;2.6;;;;;;;32.13;37.31738;942.2026;;;;
2022/05/19 12:58:45;;;;;;;5.6;2.5;;;;;;;31.99;36.07129;942.1959;;;;
2022/05/19 13:01:07;;;;;;;4.9;2.6;;;;;;;31.07;39.99316;942.1809;;;;
2022/05/19 13:03:34;;;;;;;5.9;2.5;;;;;;;31.7;36.54004;942.1479;;;;
2022/05/19 13:05:59;;;;;;;6.2;2.5;;;;;;;31.97;36.69336;942.1799;;;;
2022/05/19 13:08:25;;;;;;;4.9;2.5;;;;;;;31.95;37.92578;942.1483;;;;
2022/05/19 13:10:51;;;;;;;4.2;2.6;;;;;;;32.35;34.74512;942.1525;;;;
2022/05/19 13:13:15;;;;;;;4.2;2.2;;;;;;;32.52;35.12988;942.2014;;;;
2022/05/19 13:15:41;;;;;;;5.9;2.6;;;;;;;32.5;34.81641;942.188;;;;
2022/05/19 13:18:06;;;;;;;4.6;2.7;;;;;;;32.53;35.8623;942.2264;;;;
2022/05/19 13:20:32;;;;;;;5.3;2.6;;;;;;;32.26;37.42383;942.2439;;;;
2022/05/19 13:22:59;;;;;;;8;3.1;;;;;;;32.19;36.69922;942.2623;;;;
2022/05/19 13:25:22;;;;;;;4.4;2.8;;;;;;;32.07;36.60547;942.195;;;;
2022/05/19 13:30:22;;;;;;;8.4;2.7;;;;;;;31.02;40.15625;942.2264;;;;
2022/05/19 13:32:44;;;;;;;5.2;2.9;;;;;;;31.06;38.77344;942.2952;;;;
2022/05/19 13:35:11;;;;;;;4.2;3.1;;;;;;;31.06;39.47852;942.2079;;;;
2022/05/19 13:37:36;;;;;;;6.3;3.1;;;;;;;30.9;41.48438;942.228;;;;
2022/05/19 13:40:01;;;;;;;5.7;3;;;;;;;30.99;38.8623;942.1708;;;;
2022/05/19 13:42:31;;;;;;;5.4;3.2;;;;;;;31.02;38.61426;942.2413;;;;
2022/05/19 13:44:58;;;;;;;5.1;2.8;;;;;;;31.03;39.66699;942.2797;;;;
2022/05/19 13:47:30;;;;;;;8.1;2.7;;;;;;;29.95;41.05176;942.3273;;;;
2022/05/19 13:49:58;;;;;;;2.9;2.5;;;;;;;29.93;40.7041;942.2831;;;;
2022/05/19 13:52:25;;;;;;;3.9;2.7;;;;;;;29.21;40.68652;942.2374;;;;
2022/05/19 13:54:54;;;;;;;3.9;2.6;;;;;;;28.79;41.23242;942.2491;;;;
2022/05/19 13:57:19;;;;;;;4.9;2.7;;;;;;;28.33;42.14063;942.2064;;;;
2022/05/19 13:59:48;;;;;;;5;2.8;;;;;;;28.59;40.47559;942.2045;;;;
2022/05/19 14:02:13;;;;;;;4.1;2.8;;;;;;;28.43;43.82715;942.198;;;;
2022/05/19 14:04:41;;;;;;;4.8;2.6;;;;;;;28.53;40.10156;942.1724;;;;
2022/05/19 14:07:06;;;;;;;4.9;2.4;;;;;;;28.21;39.87207;942.1379;;;;
2022/05/19 14:09:31;;;;;;;5.5;2.8;;;;;;;28.69;43.3291;942.1713;;;;
2022/05/19 14:11:58;;;;;;;4.1;2.8;;;;;;;29.04;40.94531;942.1475;;;;
2022/05/19 14:14:23;;;;;;;3.4;2.5;;;;;;;29.31;40.2793;942.0931;;;;
2022/05/19 14:16:49;;;;;;;5.7;2.7;;;;;;;29.62;39.53125;942.0917;;;;
2022/05/19 14:19:14;;;;;;;6.5;2.9;;;;;;;29.65;46.54492;942.1333;;;;
2022/05/19 14:21:46;;;;;;;5.4;3;;;;;;;29.55;47.33203;942.127;;;;
2022/05/19 14:24:09;;;;;;;6;3.1;;;;;;;28.92;50.50488;942.2015;;;;
2022/05/19 14:26:36;;;;;;;7.3;3.4;;;;;;;28.92;51.83691;942.2206;;;;
2022/05/19 14:29:02;;;;;;;8;3.6;;;;;;;27.67;58.03223;942.18;;;;
2022/05/19 14:31:26;;;;;;;5.4;3.8;;;;;;;27;57.12891;942.1372;;;;
2022/05/19 14:33:52;;;;;;;5.9;3.4;;;;;;;26.31;60.7334;942.0992;;;;
2022/05/19 14:36:17;;;;;;;8.5;3.9;;;;;;;26.2;62.48047;942.1205;;;;
2022/05/19 14:38:42;;;;;;;6.3;3.8;;;;;;;25.89;62.95801;942.2164;;;;
2022/05/19 14:43:32;;;;;;;4.5;2.8;;;;;;;26.34;56.81934;942.157;;;;
2022/05/19 14:45:58;;;;;;;5.9;2.9;;;;;;;26.66;52.72656;942.2065;;;;
2022/05/19 14:48:23;;;;;;;6.2;3.8;;;;;;;26.2;61.26172;942.1548;;;;
2022/05/19 14:50:51;;;;;;;6.6;3.8;;;;;;;25.98;63.58594;942.0867;;;;
2022/05/19 14:53:15;;;;;;;9.2;3.1;;;;;;;26.13;59.05176;942.0933;;;;
2022/05/19 14:55:42;;;;;;;5.4;3.1;;;;;;;26.5;58.30859;942.0119;;;;
2022/05/19 14:58:08;;;;;;;5.3;3.2;;;;;;;26.98;48.41504;941.9669;;;;
2022/05/19 15:00:33;;;;;;;3.8;2.8;;;;;;;27.43;52.17578;942.017;;;;
2022/05/19 15:02:58;;;;;;;3.5;2.7;;;;;;;27.84;45.05078;942.0097;;;;
2022/05/19 15:05:28;;;;;;;5.3;3.4;;;;;;;27.58;57.28418;942.1438;;;;
2022/05/19 15:07:53;;;;;;;4.5;3;;;;;;;27.01;58.0293;942.1386;;;;
2022/05/19 15:10:22;;;;;;;5.5;3.3;;;;;;;26.67;59.39551;942.1638;;;;
2022/05/19 15:12:46;;;;;;;5.8;3;;;;;;;26.93;54.22754;942.0544;;;;
2022/05/19 15:15:13;;;;;;;4.7;3;;;;;;;26.95;56.37598;942.0164;;;;
2022/05/19 15:17:38;;;;;;;7.2;3.4;;;;;;;26.5;59.26758;942.0756;;;;
2022/05/19 15:20:06;;;;;;;4.9;3.2;;;;;;;26.57;60.60059;942.1774;;;;
2022/05/19 15:22:41;;;;;;;4.8;3.7;;;;;;;25.95;63.2373;942.1052;;;;
2022/05/19 15:24:57;;;;;;;4.4;3.1;;;;;;;25.72;64.1748;942.1359;;;;
2022/05/19 15:27:22;;;;;;;5.6;3;;;;;;;25.37;62.34082;942.0798;;;;
2022/05/19 15:29:49;;;;;;;4.1;3.1;;;;;;;25.42;63.99023;942.1184;;;;
2022/05/19 15:32:14;;;;;;;5.8;3.1;;;;;;;25.77;61.94727;942.1144;;;;
2022/05/19 15:34:40;;;;;;;5.7;3.3;;;;;;;25.6;62.46875;942.0753;;;;
2022/05/19 15:37:05;;;;;;;6.5;3.1;;;;;;;25.64;62.63867;942.0627;;;;
2022/05/19 15:39:33;;;;;;;9.7;3.3;;;;;;;26.04;63.44043;942.1144;;;;
2022/05/19 15:41:58;;;;;;;4.3;3.5;;;;;;;25.95;64.52637;942.0449;;;;
2022/05/19 15:44:27;;;;;;;5.4;3.6;;;;;;;25.98;65.16895;942.0582;;;;
2022/05/19 15:46:52;;;;;;;5.8;3.8;;;;;;;25.99;65.53809;942.082;;;;
2022/05/19 15:49:20;;;;;;;5.8;3.7;;;;;;;25.94;66.84375;942.0712;;;;
2022/05/19 15:51:43;;;;;;;5.2;3.6;;;;;;;25.76;67.66699;942.0544;;;;
2022/05/19 15:54:08;;;;;;;6.5;4.1;;;;;;;25.65;68.35938;942.0369;;;;
2022/05/19 15:56:36;;;;;;;6.7;3.9;;;;;;;25.41;69.00684;942.035;;;;
2022/05/19 15:59:02;;;;;;;5;3.5;;;;;;;25.18;68.0752;942.0319;;;;
2022/05/19 16:01:30;;;;;;;5.7;3.8;;;;;;;24.95;69.96387;942.075;;;;
2022/05/19 16:03:54;;;;;;;6.9;4;;;;;;;25.15;70.83301;942.0854;;;;
2022/05/19 16:06:23;;;;;;;7.3;4.1;;;;;;;24.87;71.87402;942.1004;;;;
2022/05/19 16:09:06;;;;;;;6.9;4.1;;;;;;;24.81;72.08984;942.1275;;;;
2022/05/19 16:11:19;;;;;;;6;3.6;;;;;;;25.08;69.08691;942.1161;;;;
2022/05/19 16:13:48;;;;;;;5.1;3.8;;;;;;;25.11;68.26465;942.14;;;;
2022/05/19 16:16:17;;;;;;;5.8;4;;;;;;;25;68.84961;942.2086;;;;
2022/05/19 16:18:41;;;;;;;6.6;4.2;;;;;;;24.97;69.49512;942.2183;;;;
2022/05/19 16:21:06;;;;;;;7.8;3.7;;;;;;;24.99;69.02734;942.1852;;;;
2022/05/19 16:23:34;;;;;;;6.7;3.8;;;;;;;24.96;69.89453;942.1926;;;;
2022/05/19 16:25:59;;;;;;;7.2;3.9;;;;;;;25.02;69.59766;942.123;;;;
2022/05/19 16:28:26;;;;;;;5;3.7;;;;;;;24.97;69.08008;942.1233;;;;
2022/05/19 16:30:51;;;;;;;5.9;3.9;;;;;;;24.93;68.83887;942.1191;;;;
2022/05/19 16:33:18;;;;;;;8.4;4.5;;;;;;;24.71;69.90332;942.0849;;;;
2022/05/19 16:35:43;;;;;;;8.4;4.3;;;;;;;24.73;69.71582;942.0786;;;;
2022/05/19 16:38:08;;;;;;;4.8;3.9;;;;;;;24.87;69.03125;942.0878;;;;
2022/05/19 16:40:35;;;;;;;5.3;4.2;;;;;;;24.91;68.35254;942.11;;;;
2022/05/19 16:43:04;;;;;;;5;3.8;;;;;;;24.99;67.66992;942.1102;;;;
2022/05/19 16:45:32;;;;;;;5.6;3.9;;;;;;;25.1;66.02148;942.1218;;;;
2022/05/19 16:47:59;;;;;;;5.1;3.7;;;;;;;25.13;66.32031;942.1124;;;;
2022/05/19 16:50:26;;;;;;;5.1;3.8;;;;;;;25.19;66.55371;942.1418;;;;
2022/05/19 16:52:51;;;;;;;5.4;3.7;;;;;;;25.2;65.87207;942.1755;;;;
2022/05/19 16:57:46;;;;;;;9.5;4.4;;;;;;;25.09;65.6084;942.2231;;;;
2022/05/19 17:00:09;;;;;;;9.9;4.3;;;;;;;25.09;67.36523;942.2208;;;;
2022/05/19 17:02:39;;;;;;;14.9;7.3;;;;;;;24.98;67.08789;942.2614;;;;
2022/05/19 17:05:07;;;;;;;15.8;7.7;;;;;;;24.85;67.51855;942.2614;;;;
2022/05/19 17:07:34;;;;;;;17;8.1;;;;;;;24.75;68.66992;942.2781;;;;
2022/05/19 17:09:59;;;;;;;16.8;6.5;;;;;;;24.65;69.71582;942.3065;;;;
2022/05/19 17:12:28;;;;;;;11.1;5.6;;;;;;;24.53;70.56836;942.2841;;;;
2022/05/19 17:14:52;;;;;;;12.5;5.6;;;;;;;24.42;70.94141;942.3195;;;;
2022/05/19 17:17:21;;;;;;;9.2;5.7;;;;;;;24.25;72.25684;942.3591;;;;
2022/05/19 17:19:45;;;;;;;8.5;4.9;;;;;;;23.99;72.60254;942.4891;;;;
2022/05/19 17:22:14;;;;;;;10.4;5.2;;;;;;;24.01;73.10059;942.5496;;;;
2022/05/19 17:24:37;;;;;;;8.4;4.6;;;;;;;24.02;71.92578;942.6199;;;;
2022/05/19 17:27:06;;;;;;;7;4.9;;;;;;;23.9;71.47168;942.6744;;;;
2022/05/19 17:29:32;;;;;;;6.5;3.8;;;;;;;23.84;69.89551;942.7026;;;;
2022/05/19 17:31:58;;;;;;;7.6;4.7;;;;;;;23.91;74.21582;942.7896;;;;
2022/05/19 17:34:23;;;;;;;6.3;4.7;;;;;;;23.86;73.1709;942.7507;;;;
2022/05/19 17:36:52;;;;;;;7.9;3.9;;;;;;;23.56;63.96973;942.74;;;;
2022/05/19 17:39:18;;;;;;;4.3;3.3;;;;;;;23.43;61.37695;942.702;;;;
2022/05/19 17:41:45;;;;;;;3.9;3.1;;;;;;;23.39;58.75;942.7867;;;;
2022/05/19 17:44:11;;;;;;;5.7;3.3;;;;;;;23.41;58.59863;942.752;;;;
2022/05/19 17:46:38;;;;;;;4.9;3.3;;;;;;;23.3;58.19629;942.9311;;;;
2022/05/19 17:49:05;;;;;;;5.2;3.1;;;;;;;23.05;58;943.1604;;;;
2022/05/19 17:51:28;;;;;;;4;2.7;;;;;;;22.72;58.94238;943.3572;;;;
2022/05/19 17:53:57;;;;;;;4.4;2.9;;;;;;;22.3;62.22949;943.7709;;;;
2022/05/19 17:56:22;;;;;;;4.5;2.8;;;;;;;21.9;64.40039;944.2007;;;;
2022/05/19 17:58:48;;;;;;;3.7;2.9;;;;;;;21.66;67.12891;944.6448;;;;
2022/05/19 18:01:15;;;;;;;4.1;2.5;;;;;;;21.32;66.71582;944.9832;;;;
2022/05/19 18:03:40;;;;;;;9.1;3.8;;;;;;;21.07;70.93457;945.2988;;;;
2022/05/19 18:06:06;;;;;;;7.4;3.5;;;;;;;20.62;71.94922;945.7556;;;;
2022/05/19 18:08:31;;;;;;;12.3;4.4;;;;;;;20.19;77.70313;945.4634;;;;
2022/05/19 18:10:58;;;;;;;8.9;4.4;;;;;;;19.46;80.0918;945.351;;;;
2022/05/19 18:13:23;;;;;;;9.5;4.4;;;;;;;19.41;83.34766;945.5023;;;;
2022/05/19 18:18:23;;;;;;;7.6;4.1;;;;;;;18.6;85.1582;945.9328;;;;
2022/05/19 18:20:42;;;;;;;9.6;4.4;;;;;;;18.63;84.38574;945.9396;;;;
2022/05/19 18:23:09;;;;;;;5.6;3.7;;;;;;;18.53;83.7041;945.994;;;;
2022/05/19 18:25:33;;;;;;;9.5;4.8;;;;;;;18.63;86.38477;946.0219;;;;
2022/05/19 18:28:00;;;;;;;9;4.9;;;;;;;18.58;89.37695;946.0452;;;;
2022/05/19 18:30:25;;;;;;;8.9;4.1;;;;;;;18.3;91.33008;946.0545;;;;
2022/05/19 18:32:50;;;;;;;9.4;4.9;;;;;;;18.27;94.21875;946.1579;;;;
2022/05/19 18:35:15;;;;;;;9;4.6;;;;;;;18.4;92.48047;946.2407;;;;
2022/05/19 18:37:44;;;;;;;8;4.2;;;;;;;18.24;92.36328;946.1806;;;;
2022/05/19 18:45:15;;;;;;;6.4;3.6;;;;;;;17.89;91.69922;946.2622;;;;
2022/05/19 18:47:45;;;;;;;4.9;3.5;;;;;;;17.85;92.42285;946.1827;;;;
2022/05/19 18:50:17;;;;;;;5.3;3.4;;;;;;;17.85;91.66797;946.1956;;;;
2022/05/19 18:52:48;;;;;;;7.1;3.7;;;;;;;17.74;92.65332;946.2056;;;;
2022/05/19 18:55:19;;;;;;;6.2;3.8;;;;;;;17.69;92.16797;946.1559;;;;
2022/05/19 18:57:48;;;;;;;5.3;3.4;;;;;;;17.78;92.04785;946.0708;;;;
2022/05/19 19:00:18;;;;;;;5.4;3.5;;;;;;;17.89;93.11523;945.9648;;;;
2022/05/19 19:02:45;;;;;;;5.3;3.9;;;;;;;17.83;95.48047;945.9934;;;;
2022/05/19 19:05:08;;;;;;;7.6;4.3;;;;;;;17.76;96.60645;945.8711;;;;
2022/05/19 19:07:34;;;;;;;7;4.2;;;;;;;17.79;95.88086;945.6953;;;;
2022/05/19 19:09:59;;;;;;;6.8;3.9;;;;;;;17.73;95.34668;945.5248;;;;
2022/05/19 19:12:26;;;;;;;6.1;3.6;;;;;;;17.87;94.36426;945.3695;;;;
2022/05/19 19:14:52;;;;;;;4.7;3.6;;;;;;;17.69;96.10254;945.3544;;;;
2022/05/19 19:17:18;;;;;;;8.4;3.7;;;;;;;17.75;95.3252;945.2863;;;;
2022/05/19 19:19:43;;;;;;;6.6;2.8;;;;;;;17.85;92.87598;945.2173;;;;
2022/05/19 19:22:11;;;;;;;4.7;2.9;;;;;;;17.93;88.76855;945.1515;;;;
2022/05/19 19:24:37;;;;;;;3.8;2.6;;;;;;;18.13;88.41309;945.2921;;;;